Time;durP1;ratioP1;P1;durP2;ratioP2;P2;SDS_P1;SDS_P2;PMS_P1;PMS_P2;Temp;Humidity;BMP_temperature;BMP_pressure;BME280_temperature;BME280_humidity;BME280_pressure;Samples;Min_cycle;Max_cycle;Signal;HPM_P1;HPM_P2
2024/04/14 00:00:50;;;;;;;;;;;;;;;20.46;31.36;98513.91;5309933;26;1905;-74
2024/04/14 00:03:15;;;;;;;;;;;;;;;20.70;31.03;98512.78;5311821;27;1212;-74
2024/04/14 00:05:41;;;;;;;;;;;;;;;20.70;30.78;98507.13;5311693;27;973;-75
2024/04/14 00:08:06;;;;;;;;;;;;;;;20.06;31.25;98445.84;5312105;27;1126;-74
2024/04/14 00:10:32;;;;;;;;;;;;;;;20.68;31.05;98514.47;5283012;27;1123;-74
2024/04/14 00:12:57;;;;;;;;;;;;;;;20.75;30.87;98514.34;5226052;27;1846;-74
2024/04/14 00:15:24;;;;;;;;;;;;;;;20.69;30.94;98511.19;5283345;27;902;-74
2024/04/14 00:17:49;;;;;;;;;;;;;;;20.69;31.38;98513.22;5279807;26;1834;-75
2024/04/14 00:20:15;;;;;;;;;;;;;;;20.97;31.08;98520.47;5304152;27;2311;-74
2024/04/14 00:22:41;;;;;;;;;;;;;;;20.92;30.98;98516.09;5277211;27;1055;-74
2024/04/14 00:25:06;;;;;;;;;;;;;;;21.05;30.61;98511.44;5277454;27;1089;-74
2024/04/14 00:27:32;;;;;;;;;;;;;;;20.57;31.50;98514.59;5277492;27;975;-73
2024/04/14 00:29:57;;;;;;;;;;;;;;;21.05;30.58;98514.28;5277340;27;959;-74
2024/04/14 00:32:23;;;;;;;;;;;;;;;20.71;30.86;98505.09;5253660;26;1010;-74
2024/04/14 00:34:51;;;;;;;;;;;;;;;20.73;30.85;98511.94;5327626;26;2203;-74
2024/04/14 00:37:17;;;;;;;;;;;;;;;20.71;30.90;98514.38;5335565;26;2285;-74
2024/04/14 00:39:42;;;;;;;;;;;;;;;20.59;31.09;98514.19;5351881;26;942;-75
2024/04/14 00:42:08;;;;;;;;;;;;;;;20.46;31.34;98511.09;5351649;26;1155;-74
2024/04/14 00:44:34;;;;;;;;;;;;;;;20.59;31.24;98514.19;5380558;26;993;-74
2024/04/14 00:47:00;;;;;;;;;;;;;;;20.26;31.78;98511.78;5352254;26;1142;-74
2024/04/14 00:49:26;;;;;;;;;;;;;;;20.60;31.17;98516.56;5380465;26;1191;-74
2024/04/14 00:51:51;;;;;;;;;;;;;;;20.53;31.25;98513.84;5322055;26;2230;-75
2024/04/14 00:54:17;;;;;;;;;;;;;;;20.71;30.96;98511.56;5384184;26;1113;-74
2024/04/14 00:56:46;;;;;;;;;;;;;;;20.70;31.06;98507.13;5393729;26;1826;-74
2024/04/14 00:59:12;;;;;;;;;;;;;;;20.76;31.08;98505.41;5422165;26;2460;-74
2024/04/14 01:01:37;;;;;;;;;;;;;;;20.94;31.08;98507.19;5364106;26;1134;-75
2024/04/14 01:04:03;;;;;;;;;;;;;;;20.86;31.12;98508.53;5454869;26;950;-74
2024/04/14 01:06:28;;;;;;;;;;;;;;;20.98;30.92;98499.44;5422876;26;1277;-75
2024/04/14 01:08:54;;;;;;;;;;;;;;;20.68;31.28;98497.50;5393851;26;974;-74
2024/04/14 01:11:19;;;;;;;;;;;;;;;20.70;30.98;98495.03;5393425;26;1221;-74
2024/04/14 01:13:45;;;;;;;;;;;;;;;20.74;31.15;98490.91;5453415;26;2072;-74
2024/04/14 01:16:11;;;;;;;;;;;;;;;20.58;31.43;98493.59;5422919;26;925;-74
2024/04/14 01:18:38;;;;;;;;;;;;;;;20.93;30.75;98491.41;5423140;26;1821;-74
2024/04/14 01:21:05;;;;;;;;;;;;;;;20.60;31.27;98488.31;5422870;26;895;-74
2024/04/14 01:23:30;;;;;;;;;;;;;;;20.67;30.88;98482.53;5350451;26;1451;-73
2024/04/14 01:25:56;;;;;;;;;;;;;;;20.61;31.11;98481.41;5354004;26;1279;-73
2024/04/14 01:28:21;;;;;;;;;;;;;;;20.68;31.18;98486.97;5335813;26;2257;-73
2024/04/14 01:30:47;;;;;;;;;;;;;;;20.87;31.16;98481.81;5319530;26;1198;-75
2024/04/14 01:33:12;;;;;;;;;;;;;;;20.80;31.17;98477.09;5290931;26;917;-74
2024/04/14 01:35:38;;;;;;;;;;;;;;;20.83;31.16;98481.06;5348409;26;918;-74
2024/04/14 01:38:04;;;;;;;;;;;;;;;20.78;31.16;98486.00;5348168;26;1829;-74
2024/04/14 01:40:29;;;;;;;;;;;;;;;20.86;31.24;98483.84;5319368;26;1216;-74
2024/04/14 01:42:55;;;;;;;;;;;;;;;20.78;31.23;98482.38;5328910;26;1718;-74
2024/04/14 01:45:20;;;;;;;;;;;;;;;20.71;31.18;98485.31;5380991;26;2295;-74
2024/04/14 01:47:46;;;;;;;;;;;;;;;20.65;31.00;98481.38;5383238;26;966;-74
2024/04/14 01:50:11;;;;;;;;;;;;;;;20.32;31.58;98485.88;5296264;26;1244;-73
2024/04/14 01:52:37;;;;;;;;;;;;;;;20.42;31.72;98484.91;5353990;26;955;-74
2024/04/14 01:55:03;;;;;;;;;;;;;;;20.61;31.43;98475.75;5436943;26;989;-74
2024/04/14 01:57:28;;;;;;;;;;;;;;;20.81;30.95;98479.47;5423577;26;1860;-75
2024/04/14 01:59:54;;;;;;;;;;;;;;;20.72;30.76;98467.91;5426097;26;899;-74
2024/04/14 02:02:19;;;;;;;;;;;;;;;20.71;30.86;98469.13;5365831;26;858;-73
2024/04/14 02:04:45;;;;;;;;;;;;;;;20.58;31.43;98476.63;5396140;26;1098;-74
2024/04/14 02:07:11;;;;;;;;;;;;;;;20.63;31.31;98473.31;5395792;26;1138;-74
2024/04/14 02:09:36;;;;;;;;;;;;;;;20.81;30.86;98468.16;5425748;26;1283;-74
2024/04/14 02:12:02;;;;;;;;;;;;;;;20.75;31.11;98464.22;5423632;26;1758;-74
2024/04/14 02:14:28;;;;;;;;;;;;;;;20.69;31.56;98460.28;5359032;26;1667;-74
2024/04/14 02:16:53;;;;;;;;;;;;;;;20.89;31.43;98462.41;5318585;26;1826;-74
2024/04/14 02:19:19;;;;;;;;;;;;;;;20.76;31.73;98453.72;5347941;26;1013;-74
2024/04/14 02:21:44;;;;;;;;;;;;;;;20.86;31.60;98458.41;5261834;26;1206;-74
2024/04/14 02:24:10;;;;;;;;;;;;;;;20.42;31.92;98459.47;5318657;26;1178;-74
2024/04/14 02:26:35;;;;;;;;;;;;;;;20.46;31.76;98469.50;5306093;27;2496;-74
2024/04/14 02:29:01;;;;;;;;;;;;;;;20.58;31.31;98470.19;5289409;26;2110;-74
2024/04/14 02:31:26;;;;;;;;;;;;;;;20.46;31.83;98475.16;5290147;26;1139;-75
2024/04/14 02:33:52;;;;;;;;;;;;;;;20.20;32.31;98473.88;5318954;26;1040;-74
2024/04/14 02:36:17;;;;;;;;;;;;;;;20.30;32.19;98478.59;5317730;26;1013;-74
2024/04/14 02:38:43;;;;;;;;;;;;;;;20.42;31.91;98479.25;5318814;26;1830;-73
2024/04/14 02:41:08;;;;;;;;;;;;;;;20.22;32.00;98482.75;5319017;26;944;-74
2024/04/14 02:43:34;;;;;;;;;;;;;;;19.96;32.69;98475.03;5317873;26;2120;-74
2024/04/14 02:46:00;;;;;;;;;;;;;;;20.25;32.20;98473.41;5289762;26;1381;-74
2024/04/14 02:48:25;;;;;;;;;;;;;;;20.59;31.71;98478.22;5363100;26;1272;-73
2024/04/14 02:50:51;;;;;;;;;;;;;;;20.60;31.48;98476.19;5381957;26;1984;-75
2024/04/14 02:53:16;;;;;;;;;;;;;;;20.39;31.86;98480.09;5385363;26;906;-73
2024/04/14 02:55:42;;;;;;;;;;;;;;;20.85;31.55;98475.81;5383514;26;1042;-76
2024/04/14 02:58:07;;;;;;;;;;;;;;;21.05;31.37;98479.53;5383618;26;1854;-74
2024/04/14 03:00:33;;;;;;;;;;;;;;;20.98;31.46;98474.75;5383701;26;956;-73
2024/04/14 03:02:58;;;;;;;;;;;;;;;20.97;31.42;98480.84;5384458;26;2396;-74
2024/04/14 03:05:24;;;;;;;;;;;;;;;20.89;31.55;98483.03;5325544;26;990;-74
2024/04/14 03:07:50;;;;;;;;;;;;;;;20.97;31.53;98483.69;5267978;26;1262;-75
2024/04/14 03:10:15;;;;;;;;;;;;;;;20.48;32.12;98471.94;5354465;26;1965;-74
2024/04/14 03:12:41;;;;;;;;;;;;;;;20.62;31.74;98483.00;5325448;26;1675;-74
2024/04/14 03:15:06;;;;;;;;;;;;;;;21.02;31.10;98489.66;5383455;26;1142;-74
2024/04/14 03:17:32;;;;;;;;;;;;;;;20.53;32.00;98488.41;5376625;26;1997;-74
2024/04/14 03:19:58;;;;;;;;;;;;;;;20.85;31.48;98484.31;5249983;27;1091;-73
2024/04/14 03:22:23;;;;;;;;;;;;;;;20.61;31.78;98481.41;5211155;27;1056;-74
2024/04/14 03:24:49;;;;;;;;;;;;;;;20.59;31.91;98495.19;5172667;27;1047;-74
2024/04/14 03:27:14;;;;;;;;;;;;;;;20.69;31.41;98491.41;5189627;27;973;-74
2024/04/14 03:29:41;;;;;;;;;;;;;;;20.80;31.14;98500.53;5244540;27;983;-74
2024/04/14 03:32:06;;;;;;;;;;;;;;;20.37;31.62;98502.34;5222699;27;2124;-74
2024/04/14 03:34:32;;;;;;;;;;;;;;;20.46;31.63;98503.44;5236313;27;2174;-74
2024/04/14 03:36:57;;;;;;;;;;;;;;;20.46;31.77;98503.44;5221909;27;1844;-74
2024/04/14 03:39:23;;;;;;;;;;;;;;;20.68;31.92;98498.28;5250171;27;965;-74
2024/04/14 03:41:49;;;;;;;;;;;;;;;20.86;31.93;98500.03;5250165;27;1042;-74
2024/04/14 03:44:15;;;;;;;;;;;;;;;21.10;31.42;98501.66;5222268;27;1274;-74
2024/04/14 03:46:40;;;;;;;;;;;;;;;21.04;31.64;98504.19;5229596;27;2167;-74
2024/04/14 03:49:06;;;;;;;;;;;;;;;21.08;31.56;98506.94;5244417;27;915;-73
2024/04/14 03:51:34;;;;;;;;;;;;;;;20.61;32.07;98495.56;5251346;27;948;-74
2024/04/14 03:53:59;;;;;;;;;;;;;;;20.85;31.79;98501.28;5328983;26;1299;-74
2024/04/14 03:56:25;;;;;;;;;;;;;;;20.47;32.34;98501.44;5316977;26;2371;-74
2024/04/14 03:58:50;;;;;;;;;;;;;;;20.80;31.38;98506.19;5307358;26;1835;-75
2024/04/14 04:01:17;;;;;;;;;;;;;;;20.67;31.79;98502.31;5279839;26;1244;-75
2024/04/14 04:03:43;;;;;;;;;;;;;;;20.68;31.79;98503.94;5307895;26;1333;-74
2024/04/14 04:06:08;;;;;;;;;;;;;;;20.44;32.11;98511.50;5317697;26;900;-75
2024/04/14 04:08:34;;;;;;;;;;;;;;;20.49;32.12;98513.91;5317601;26;1203;-75
2024/04/14 04:11:00;;;;;;;;;;;;;;;20.29;32.51;98510.09;5283047;27;1265;-75
2024/04/14 04:13:26;;;;;;;;;;;;;;;20.56;31.88;98513.00;5243748;27;916;-76
2024/04/14 04:15:58;;;;;;;;;;;;;;;20.70;31.61;98512.78;5188637;27;1448;-75
2024/04/14 04:18:24;;;;;;;;;;;;;;;20.68;31.63;98506.78;5243685;27;1850;-75
2024/04/14 04:20:57;;;;;;;;;;;;;;;20.58;31.65;98515.41;5244234;27;921;-75
2024/04/14 04:23:22;;;;;;;;;;;;;;;20.81;32.03;98510.59;5210767;27;893;-75
2024/04/14 04:25:48;;;;;;;;;;;;;;;20.84;32.03;98516.66;5243931;27;1059;-75
2024/04/14 04:28:13;;;;;;;;;;;;;;;21.00;31.66;98519.63;5244194;27;985;-75
2024/04/14 04:30:39;;;;;;;;;;;;;;;21.14;31.49;98518.56;5243989;27;981;-75
2024/04/14 04:33:04;;;;;;;;;;;;;;;20.77;31.87;98512.66;5244182;27;959;-75
2024/04/14 04:35:31;;;;;;;;;;;;;;;20.72;31.91;98510.31;5244133;27;986;-75
2024/04/14 04:37:57;;;;;;;;;;;;;;;20.70;32.02;98509.97;5243747;27;1881;-75
2024/04/14 04:40:23;;;;;;;;;;;;;;;20.67;32.02;98527.78;5243478;27;1015;-75
2024/04/14 04:42:48;;;;;;;;;;;;;;;20.69;31.86;98516.84;5215586;27;964;-75
2024/04/14 04:45:14;;;;;;;;;;;;;;;20.66;31.91;98523.34;5299390;27;874;-74
2024/04/14 04:47:39;;;;;;;;;;;;;;;20.71;32.01;98528.53;5345640;26;910;-75
2024/04/14 04:50:05;;;;;;;;;;;;;;;20.72;31.64;98524.47;5345783;26;1116;-75
2024/04/14 04:52:30;;;;;;;;;;;;;;;20.76;31.80;98528.03;5288072;26;977;-77
2024/04/14 04:54:56;;;;;;;;;;;;;;;20.50;32.64;98531.66;5342168;26;1271;-74
2024/04/14 04:57:21;;;;;;;;;;;;;;;20.86;31.67;98531.94;5351369;26;1951;-75
2024/04/14 04:59:47;;;;;;;;;;;;;;;20.36;32.66;98526.97;5324511;26;1095;-75
2024/04/14 05:02:12;;;;;;;;;;;;;;;20.36;32.50;98526.16;5354472;26;1361;-75
2024/04/14 05:04:38;;;;;;;;;;;;;;;20.63;32.48;98529.88;5354712;26;1525;-75
2024/04/14 05:07:03;;;;;;;;;;;;;;;20.93;32.35;98533.84;5354424;26;884;-75
2024/04/14 05:09:29;;;;;;;;;;;;;;;20.83;32.69;98527.16;5325691;26;1552;-75
2024/04/14 05:11:54;;;;;;;;;;;;;;;20.95;32.58;98531.41;5354562;26;1037;-75
2024/04/14 05:14:22;;;;;;;;;;;;;;;20.94;32.71;98521.34;5354485;26;1204;-75
2024/04/14 05:16:48;;;;;;;;;;;;;;;20.54;33.19;98532.41;5355338;26;1861;-75
2024/04/14 05:19:14;;;;;;;;;;;;;;;20.63;33.08;98529.06;5345835;26;1217;-75
2024/04/14 05:21:39;;;;;;;;;;;;;;;20.40;33.23;98529.75;5354511;26;1089;-75
2024/04/14 05:24:07;;;;;;;;;;;;;;;20.52;33.10;98529.19;5353905;26;1219;-75
2024/04/14 05:26:33;;;;;;;;;;;;;;;20.65;32.80;98533.06;5325915;26;1150;-75
2024/04/14 05:28:58;;;;;;;;;;;;;;;20.65;32.67;98533.06;5325515;26;918;-75
2024/04/14 05:31:24;;;;;;;;;;;;;;;20.97;32.18;98537.44;5325727;26;972;-75
2024/04/14 05:33:54;;;;;;;;;;;;;;;20.59;32.60;98531.16;5354442;26;1325;-75
2024/04/14 05:36:19;;;;;;;;;;;;;;;20.91;32.19;98541.97;5354879;26;983;-75
2024/04/14 05:38:47;;;;;;;;;;;;;;;20.45;32.90;98535.72;5354022;26;1834;-75
2024/04/14 05:41:16;;;;;;;;;;;;;;;20.81;32.17;98535.25;5325602;26;1485;-75
2024/04/14 05:43:42;;;;;;;;;;;;;;;20.71;32.47;98541.88;5223619;27;1257;-75
2024/04/14 05:46:08;;;;;;;;;;;;;;;20.86;32.16;98533.97;5251905;27;1087;-74
2024/04/14 05:48:33;;;;;;;;;;;;;;;20.71;32.17;98537.00;5251527;27;941;-75
2024/04/14 05:50:59;;;;;;;;;;;;;;;20.62;32.32;98533.91;5279851;27;1102;-75
2024/04/14 05:53:24;;;;;;;;;;;;;;;20.81;32.17;98530.41;5278124;27;1146;-75
2024/04/14 05:55:50;;;;;;;;;;;;;;;21.00;31.87;98528.09;5285253;27;946;-75
2024/04/14 05:58:15;;;;;;;;;;;;;;;20.84;32.17;98534.41;5313510;27;1831;-75
2024/04/14 06:00:41;;;;;;;;;;;;;;;20.71;32.24;98531.34;5313744;27;964;-76
2024/04/14 06:03:07;;;;;;;;;;;;;;;20.66;32.21;98526.19;5285213;27;930;-75
2024/04/14 06:05:32;;;;;;;;;;;;;;;20.78;32.02;98528.44;5285698;27;888;-75
2024/04/14 06:07:58;;;;;;;;;;;;;;;20.74;31.84;98536.16;5313834;27;979;-75
2024/04/14 06:10:23;;;;;;;;;;;;;;;20.58;32.21;98538.03;5278950;27;1118;-75
2024/04/14 06:12:50;;;;;;;;;;;;;;;20.71;31.88;98544.69;5251070;27;1365;-75
2024/04/14 06:15:15;;;;;;;;;;;;;;;20.41;32.46;98539.81;5325234;26;909;-75
2024/04/14 06:17:41;;;;;;;;;;;;;;;20.32;32.59;98531.88;5353675;26;1851;-74
2024/04/14 06:20:07;;;;;;;;;;;;;;;20.44;32.90;98533.34;5353311;26;958;-75
2024/04/14 06:22:32;;;;;;;;;;;;;;;20.81;32.76;98536.06;5382786;26;919;-75
2024/04/14 06:24:58;;;;;;;;;;;;;;;20.92;33.09;98540.75;5382763;26;991;-75
2024/04/14 06:27:23;;;;;;;;;;;;;;;20.95;33.17;98540.69;5382890;26;935;-75
2024/04/14 06:29:49;;;;;;;;;;;;;;;21.13;32.91;98545.28;5382677;26;968;-75
2024/04/14 06:32:14;;;;;;;;;;;;;;;21.12;32.92;98555.78;5353475;26;1222;-75
2024/04/14 06:34:40;;;;;;;;;;;;;;;21.39;32.41;98552.16;5353394;26;1202;-75
2024/04/14 06:37:05;;;;;;;;;;;;;;;20.91;33.13;98548.44;5382373;26;1825;-75
2024/04/14 06:39:31;;;;;;;;;;;;;;;21.08;32.66;98546.56;5353727;26;890;-75
2024/04/14 06:41:56;;;;;;;;;;;;;;;20.71;33.27;98550.34;5384730;26;879;-75
2024/04/14 06:44:22;;;;;;;;;;;;;;;20.98;32.49;98556.00;5354881;26;1123;-75
2024/04/14 06:46:47;;;;;;;;;;;;;;;20.84;32.58;98557.03;5383937;26;982;-75
2024/04/14 06:49:13;;;;;;;;;;;;;;;21.01;32.39;98558.00;5383645;26;1179;-75
2024/04/14 06:51:38;;;;;;;;;;;;;;;20.48;33.37;98545.44;5384080;26;1100;-75
2024/04/14 06:54:04;;;;;;;;;;;;;;;20.54;33.08;98549.38;5383723;26;971;-75
2024/04/14 06:56:29;;;;;;;;;;;;;;;20.46;33.49;98554.31;5382248;26;964;-75
2024/04/14 06:58:55;;;;;;;;;;;;;;;20.70;32.86;98558.03;5353068;26;1863;-75
2024/04/14 07:01:20;;;;;;;;;;;;;;;20.38;33.14;98555.63;5353287;26;966;-74
2024/04/14 07:03:46;;;;;;;;;;;;;;;20.57;32.82;98547.72;5353716;26;990;-75
2024/04/14 07:06:11;;;;;;;;;;;;;;;20.67;32.69;98558.88;5382229;26;1105;-75
2024/04/14 07:08:39;;;;;;;;;;;;;;;20.47;33.05;98561.59;5324020;26;1161;-75
2024/04/14 07:11:04;;;;;;;;;;;;;;;20.34;33.04;98556.88;5324778;26;1008;-75
2024/04/14 07:13:30;;;;;;;;;;;;;;;20.79;32.33;98563.19;5353317;26;998;-75
2024/04/14 07:15:55;;;;;;;;;;;;;;;20.43;32.81;98569.28;5352872;26;1066;-75
2024/04/14 07:18:21;;;;;;;;;;;;;;;20.64;32.66;98564.59;5323884;26;1836;-75
2024/04/14 07:20:46;;;;;;;;;;;;;;;20.54;32.72;98561.47;5381894;26;1217;-75
2024/04/14 07:23:12;;;;;;;;;;;;;;;20.79;32.38;98566.78;5351866;26;1075;-74
2024/04/14 07:25:37;;;;;;;;;;;;;;;20.86;32.03;98565.09;5324134;26;1118;-75
2024/04/14 07:28:03;;;;;;;;;;;;;;;20.83;32.38;98554.63;5373496;26;1271;-74
2024/04/14 07:30:28;;;;;;;;;;;;;;;20.81;32.04;98564.34;5352336;26;1163;-74
2024/04/14 07:32:54;;;;;;;;;;;;;;;20.24;33.25;98547.31;5323831;26;990;-76
2024/04/14 07:35:19;;;;;;;;;;;;;;;20.41;32.82;98549.09;5352452;26;901;-74
2024/04/14 07:37:45;;;;;;;;;;;;;;;20.20;33.11;98558.66;5381916;26;1813;-75
2024/04/14 07:40:11;;;;;;;;;;;;;;;20.26;33.02;98556.97;5352877;26;1348;-75
2024/04/14 07:42:36;;;;;;;;;;;;;;;20.27;32.60;98552.94;5352702;26;904;-75
2024/04/14 07:45:02;;;;;;;;;;;;;;;20.72;32.19;98561.22;5324004;26;1060;-75
2024/04/14 07:47:27;;;;;;;;;;;;;;;20.48;32.57;98556.72;5323964;26;957;-75
2024/04/14 07:49:53;;;;;;;;;;;;;;;20.59;32.32;98556.59;5352653;26;975;-75
2024/04/14 07:52:18;;;;;;;;;;;;;;;20.47;32.57;98560.78;5323548;26;972;-75
2024/04/14 07:54:44;;;;;;;;;;;;;;;20.65;32.40;98567.00;5295203;26;1265;-75
2024/04/14 07:57:10;;;;;;;;;;;;;;;20.67;32.25;98563.72;5352734;26;1817;-75
2024/04/14 07:59:37;;;;;;;;;;;;;;;19.69;33.97;98568.91;5381642;26;934;-75
2024/04/14 08:02:03;;;;;;;;;;;;;;;20.36;32.80;98563.69;5344507;26;1127;-74
2024/04/14 08:04:29;;;;;;;;;;;;;;;19.90;33.70;98567.06;5382894;26;1258;-75
2024/04/14 08:06:55;;;;;;;;;;;;;;;20.07;33.45;98566.09;5411439;26;1220;-75
2024/04/14 08:09:21;;;;;;;;;;;;;;;20.55;32.81;98562.28;5382842;26;935;-74
2024/04/14 08:11:46;;;;;;;;;;;;;;;20.84;32.93;98568.34;5387292;26;1003;-75
2024/04/14 08:14:13;;;;;;;;;;;;;;;21.01;33.27;98566.47;5416410;26;1237;-75
2024/04/14 08:16:39;;;;;;;;;;;;;;;21.16;33.20;98567.84;5358075;26;1874;-75
2024/04/14 08:19:04;;;;;;;;;;;;;;;20.99;33.76;98571.78;5345998;26;1205;-74
2024/04/14 08:21:30;;;;;;;;;;;;;;;21.05;33.72;98568.03;5317448;26;1028;-75
2024/04/14 08:23:55;;;;;;;;;;;;;;;20.99;33.54;98574.59;5271754;27;1103;-75
2024/04/14 08:26:21;;;;;;;;;;;;;;;20.79;33.63;98561.13;5244141;27;1030;-75
2024/04/14 08:28:46;;;;;;;;;;;;;;;20.72;33.70;98555.56;5277334;27;1123;-74
2024/04/14 08:31:12;;;;;;;;;;;;;;;20.79;33.33;98555.47;5249404;27;941;-75
2024/04/14 08:33:37;;;;;;;;;;;;;;;20.85;33.14;98552.19;5247749;27;1142;-75
2024/04/14 08:36:04;;;;;;;;;;;;;;;20.59;33.42;98557.38;5249351;27;911;-74
2024/04/14 08:38:30;;;;;;;;;;;;;;;20.84;32.90;98567.56;5248178;27;1850;-75
2024/04/14 08:40:55;;;;;;;;;;;;;;;20.84;32.96;98564.72;5233665;27;1466;-75
2024/04/14 08:43:21;;;;;;;;;;;;;;;20.99;32.52;98571.78;5238922;27;1578;-75
2024/04/14 08:45:47;;;;;;;;;;;;;;;20.96;32.40;98564.13;5243394;27;1462;-75
2024/04/14 08:48:13;;;;;;;;;;;;;;;20.89;32.84;98573.53;5269890;27;1340;-75
2024/04/14 08:50:38;;;;;;;;;;;;;;;20.71;32.85;98565.28;5291689;26;1283;-75
2024/04/14 08:53:05;;;;;;;;;;;;;;;20.60;32.91;98558.19;5297393;26;1483;-76
2024/04/14 08:55:30;;;;;;;;;;;;;;;20.46;33.36;98564.78;5304742;26;1393;-72
2024/04/14 08:57:56;;;;;;;;;;;;;;;20.52;32.99;98563.94;5304944;26;1838;-73
2024/04/14 09:00:21;;;;;;;;;;;;;;;20.70;32.88;98568.53;5288192;26;1484;-74
2024/04/14 09:02:47;;;;;;;;;;;;;;;20.76;32.60;98564.00;5322037;26;1298;-74
2024/04/14 09:05:12;;;;;;;;;;;;;;;20.74;32.46;98563.66;5356075;26;1309;-75
2024/04/14 09:07:41;;;;;;;;;;;;;;;20.69;32.78;98562.09;5392360;26;1209;-74
2024/04/14 09:10:06;;;;;;;;;;;;;;;20.66;32.52;98557.28;5421390;26;1332;-74
2024/04/14 09:12:32;;;;;;;;;;;;;;;20.81;32.50;98567.16;5392406;26;1360;-74
2024/04/14 09:14:57;;;;;;;;;;;;;;;20.95;31.86;98560.50;5391931;26;1190;-74
2024/04/14 09:17:23;;;;;;;;;;;;;;;20.39;32.77;98564.91;5421833;26;1833;-74
2024/04/14 09:19:48;;;;;;;;;;;;;;;20.29;33.55;98560.97;5451221;26;911;-74
2024/04/14 09:22:14;;;;;;;;;;;;;;;20.59;32.42;98568.69;5421564;26;928;-73
2024/04/14 09:24:40;;;;;;;;;;;;;;;20.18;33.33;98561.09;5391665;26;1003;-75
2024/04/14 09:27:05;;;;;;;;;;;;;;;20.65;32.72;98560.53;5421571;26;913;-74
2024/04/14 09:29:31;;;;;;;;;;;;;;;20.64;32.44;98562.56;5421611;26;935;-74
2024/04/14 09:31:57;;;;;;;;;;;;;;;20.41;32.91;98556.78;5391894;26;1057;-73
2024/04/14 09:34:22;;;;;;;;;;;;;;;20.41;32.91;98551.13;5421315;26;943;-74
2024/04/14 09:36:50;;;;;;;;;;;;;;;20.57;32.58;98551.34;5421258;26;1829;-75
2024/04/14 09:39:17;;;;;;;;;;;;;;;20.57;32.67;98551.34;5379795;26;1577;-74
2024/04/14 09:41:43;;;;;;;;;;;;;;;20.84;32.07;98548.56;5400831;26;1408;-74
2024/04/14 09:44:08;;;;;;;;;;;;;;;20.52;32.76;98546.16;5419431;26;1312;-75
2024/04/14 09:46:34;;;;;;;;;;;;;;;20.67;32.46;98541.91;5413116;26;1434;-74
2024/04/14 09:49:00;;;;;;;;;;;;;;;20.66;32.43;98545.16;5418784;26;1026;-74
2024/04/14 09:51:26;;;;;;;;;;;;;;;20.23;33.05;98529.56;5354049;26;1209;-74
2024/04/14 09:53:51;;;;;;;;;;;;;;;20.55;32.77;98540.47;5333239;26;1401;-75
2024/04/14 09:56:17;;;;;;;;;;;;;;;20.91;31.94;98539.16;5346267;26;1390;-74
2024/04/14 09:58:43;;;;;;;;;;;;;;;20.78;32.27;98542.56;5354220;26;1832;-73
2024/04/14 10:01:09;;;;;;;;;;;;;;;20.74;32.14;98541.81;5383401;26;866;-74
2024/04/14 10:03:35;;;;;;;;;;;;;;;20.98;31.56;98539.81;5324824;26;906;-74
2024/04/14 10:06:00;;;;;;;;;;;;;;;20.94;31.71;98541.13;5353985;26;1487;-75
2024/04/14 10:08:27;;;;;;;;;;;;;;;20.74;32.20;98536.16;5325124;26;1142;-74
2024/04/14 10:10:53;;;;;;;;;;;;;;;20.91;31.97;98527.84;5383045;26;923;-74
2024/04/14 10:13:18;;;;;;;;;;;;;;;20.71;32.22;98539.03;5325265;26;901;-74
2024/04/14 10:15:57;;;;;;;;;;;;;;;20.73;32.25;98523.25;5318015;26;1421;-73
2024/04/14 10:18:24;;;;;;;;;;;;;;;20.48;32.52;98529.25;5303349;26;1858;-75
2024/04/14 10:20:50;;;;;;;;;;;;;;;20.88;31.93;98534.34;5299731;26;1970;-74
2024/04/14 10:23:17;;;;;;;;;;;;;;;20.78;31.91;98530.47;5443614;26;1337;-75
2024/04/14 10:25:48;;;;;;;;;;;;;;;20.91;31.66;98534.28;5394189;26;1482;-74
2024/04/14 10:28:20;;;;;;;;;;;;;;;20.15;33.29;98525.22;5452592;26;1427;-74
2024/04/14 10:30:48;;;;;;;;;;;;;;;20.51;32.24;98519.13;5490899;26;936;-74
2024/04/14 10:33:20;;;;;;;;;;;;;;;20.51;32.55;98517.09;5431071;26;868;-75
2024/04/14 10:35:58;;;;;;;;;;;;;;;20.39;32.55;98514.03;5430790;26;1096;-74
2024/04/14 10:38:24;;;;;;;;;;;;;;;20.51;32.77;98513.47;5430165;26;1838;-74
2024/04/14 10:40:49;;;;;;;;;;;;;;;20.71;32.24;98505.09;5460216;26;994;-74
2024/04/14 10:43:16;;;;;;;;;;;;;;;20.58;32.48;98507.72;5429892;26;1135;-74
2024/04/14 10:45:41;;;;;;;;;;;;;;;20.34;32.88;98506.00;5400462;26;1320;-75
2024/04/14 10:48:07;;;;;;;;;;;;;;;20.61;32.49;98498.38;5459799;26;1112;-75
2024/04/14 10:50:33;;;;;;;;;;;;;;;20.81;32.03;98493.63;5460374;26;903;-74
2024/04/14 10:52:58;;;;;;;;;;;;;;;20.83;32.17;98501.69;5429848;26;1247;-74
2024/04/14 10:55:24;;;;;;;;;;;;;;;20.28;32.73;98495.19;5420832;26;1088;-74
2024/04/14 10:57:50;;;;;;;;;;;;;;;20.72;32.13;98510.31;5387993;26;1853;-75
2024/04/14 11:00:15;;;;;;;;;;;;;;;20.54;32.56;98504.16;5389768;26;969;-74
2024/04/14 11:02:42;;;;;;;;;;;;;;;20.84;31.81;98499.69;5389825;26;1120;-74
2024/04/14 11:05:07;;;;;;;;;;;;;;;20.47;32.37;98493.75;5417589;26;1087;-74
2024/04/14 11:07:33;;;;;;;;;;;;;;;20.70;32.08;98493.00;5388152;26;923;-74
2024/04/14 11:09:58;;;;;;;;;;;;;;;20.27;32.93;98490.75;5359209;26;1371;-75
2024/04/14 11:12:24;;;;;;;;;;;;;;;20.64;32.40;98479.78;5358683;26;1154;-74
2024/04/14 11:14:50;;;;;;;;;;;;;;;20.70;32.07;98481.69;5358636;26;1031;-75
2024/04/14 11:17:16;;;;;;;;;;;;;;;20.99;31.77;98475.59;5388266;26;1844;-75
2024/04/14 11:19:42;;;;;;;;;;;;;;;20.94;31.68;98476.88;5387627;26;1240;-74
2024/04/14 11:22:07;;;;;;;;;;;;;;;20.79;32.00;98481.94;5358831;26;1165;-74
2024/04/14 11:24:33;;;;;;;;;;;;;;;20.61;31.92;98486.28;5387679;26;1177;-74
2024/04/14 11:27:00;;;;;;;;;;;;;;;20.83;32.04;98478.25;5359157;26;1108;-74
2024/04/14 11:29:26;;;;;;;;;;;;;;;20.63;32.29;98472.53;5388403;26;868;-74
2024/04/14 11:31:52;;;;;;;;;;;;;;;20.84;32.18;98468.56;5388206;26;893;-74
2024/04/14 11:34:18;;;;;;;;;;;;;;;20.86;31.88;98468.91;5417428;26;1000;-74
2024/04/14 11:36:47;;;;;;;;;;;;;;;20.86;32.00;98457.59;5379865;26;1841;-75
2024/04/14 11:39:12;;;;;;;;;;;;;;;20.74;31.98;98456.97;5390210;26;1159;-74
2024/04/14 11:41:39;;;;;;;;;;;;;;;20.78;32.05;98452.06;5418436;26;916;-75
2024/04/14 11:44:05;;;;;;;;;;;;;;;20.85;32.07;98445.50;5389640;26;888;-74
2024/04/14 11:46:30;;;;;;;;;;;;;;;20.84;31.92;98443.91;5393397;26;1105;-74
2024/04/14 11:48:56;;;;;;;;;;;;;;;20.95;31.70;98438.06;5453466;26;1062;-75
2024/04/14 11:51:21;;;;;;;;;;;;;;;20.51;32.41;98431.47;5387253;26;1352;-74
2024/04/14 11:53:47;;;;;;;;;;;;;;;20.64;32.19;98429.69;5358264;26;940;-74
2024/04/14 11:56:12;;;;;;;;;;;;;;;20.61;32.45;98424.88;5358320;26;907;-74
2024/04/14 11:58:38;;;;;;;;;;;;;;;20.93;31.91;98434.84;5387314;26;1822;-75
2024/04/14 12:01:04;;;;;;;;;;;;;;;20.71;32.27;98423.09;5329471;26;1157;-74
2024/04/14 12:03:29;;;;;;;;;;;;;;;20.55;32.62;98432.25;5387196;26;949;-75
2024/04/14 12:05:55;;;;;;;;;;;;;;;20.87;31.83;98422.44;5387490;26;1181;-74
2024/04/14 12:08:21;;;;;;;;;;;;;;;20.55;32.36;98418.91;5386623;26;980;-74
2024/04/14 12:10:46;;;;;;;;;;;;;;;21.06;31.58;98421.69;5329333;26;1232;-74
2024/04/14 12:13:12;;;;;;;;;;;;;;;20.87;31.93;98425.25;5387009;26;1108;-73
2024/04/14 12:15:37;;;;;;;;;;;;;;;20.76;32.17;98414.94;5387164;26;999;-75
2024/04/14 12:18:03;;;;;;;;;;;;;;;20.87;32.01;98411.13;5386754;26;1826;-74
2024/04/14 12:20:28;;;;;;;;;;;;;;;20.55;32.38;98401.94;5387294;26;895;-74
2024/04/14 12:22:54;;;;;;;;;;;;;;;20.16;33.19;98399.69;5410974;26;878;-75
2024/04/14 12:25:20;;;;;;;;;;;;;;;20.86;32.00;98389.72;5386667;26;1036;-75
2024/04/14 12:27:45;;;;;;;;;;;;;;;20.76;32.13;98391.50;5387194;26;955;-74
2024/04/14 12:30:11;;;;;;;;;;;;;;;20.74;31.98;98383.47;5357768;26;933;-74
2024/04/14 12:32:37;;;;;;;;;;;;;;;20.86;31.93;98389.72;5386915;26;1097;-74
2024/04/14 12:35:03;;;;;;;;;;;;;;;20.52;32.58;98379.38;5358046;26;904;-74
2024/04/14 12:37:29;;;;;;;;;;;;;;;20.50;32.70;98379.81;5386819;26;1825;-75
2024/04/14 12:39:54;;;;;;;;;;;;;;;20.68;32.17;98385.19;5345765;26;959;-75
2024/04/14 12:42:20;;;;;;;;;;;;;;;20.41;32.53;98381.53;5317268;26;1041;-75
2024/04/14 12:44:45;;;;;;;;;;;;;;;20.79;31.96;98377.31;5346237;26;1133;-74
2024/04/14 12:47:11;;;;;;;;;;;;;;;20.79;32.02;98366.00;5317096;26;1144;-75
2024/04/14 12:49:36;;;;;;;;;;;;;;;20.88;31.79;98381.59;5317177;26;983;-75
2024/04/14 12:52:02;;;;;;;;;;;;;;;20.58;32.25;98371.22;5288490;26;966;-74